createdAt,value
2019-01-23T00:00:59.722Z,0.80
2019-01-23T00:03:27.914Z,0.70
2019-01-23T00:05:55.905Z,0.60
2019-01-23T00:08:23.542Z,0.50
2019-01-23T00:10:51.535Z,0.70
2019-01-23T00:13:19.555Z,0.50
2019-01-23T00:15:47.162Z,0.60
2019-01-23T00:18:14.714Z,0.40
2019-01-23T00:20:42.382Z,0.50
2019-01-23T00:23:10.358Z,0.40
2019-01-23T00:25:38.691Z,0.50
2019-01-23T00:28:07.515Z,0.30
2019-01-23T00:30:35.315Z,0.40
2019-01-23T00:33:03.390Z,0.20
2019-01-23T00:35:31.048Z,0.10
2019-01-23T00:37:59.055Z,0.00
2019-01-23T00:40:26.651Z,0.20
2019-01-23T00:42:54.341Z,0.10
2019-01-23T00:45:22.582Z,0.20
2019-01-23T00:47:50.190Z,0.10
2019-01-23T00:50:17.727Z,0.20
2019-01-23T00:52:45.259Z,0.30
2019-01-23T00:55:13.550Z,0.30
2019-01-23T00:57:41.502Z,0.50
2019-01-23T01:00:13.729Z,0.50
2019-01-23T01:02:41.634Z,0.40
2019-01-23T01:05:09.523Z,0.50
2019-01-23T01:07:37.162Z,0.60
2019-01-23T01:10:07.482Z,0.50
2019-01-23T01:12:35.360Z,0.60
2019-01-23T01:15:03.198Z,0.50
2019-01-23T01:17:31.114Z,0.50
2019-01-23T01:19:59.262Z,0.50
2019-01-23T01:22:27.132Z,0.40
2019-01-23T01:24:55.282Z,0.50
2019-01-23T01:27:23.166Z,0.60
2019-01-23T01:29:51.128Z,0.70
2019-01-23T01:32:19.139Z,0.60
2019-01-23T01:34:47.047Z,0.50
2019-01-23T01:37:14.638Z,0.60
2019-01-23T01:39:42.750Z,0.80
2019-01-23T01:42:10.443Z,0.70
2019-01-23T01:44:38.029Z,0.60
2019-01-23T01:47:05.582Z,0.60
2019-01-23T01:49:34.135Z,0.70
2019-01-23T01:52:01.690Z,0.50
2019-01-23T01:54:29.630Z,0.60
2019-01-23T01:56:57.565Z,0.80
2019-01-23T01:59:25.289Z,0.40
2019-01-23T02:01:52.882Z,0.60
2019-01-23T02:04:21.085Z,0.50
2019-01-23T02:06:49.316Z,0.60
2019-01-23T02:09:17.311Z,0.50
2019-01-23T02:11:45.022Z,0.50
2019-01-23T02:14:12.728Z,0.40
2019-01-23T02:16:40.664Z,0.60
2019-01-23T02:19:08.567Z,0.70
2019-01-23T02:21:36.201Z,0.60
2019-01-23T02:24:03.791Z,0.60
2019-01-23T02:26:31.859Z,0.80
2019-01-23T02:29:00.350Z,0.60
2019-01-23T02:31:28.015Z,0.50
2019-01-23T02:33:56.078Z,0.60
2019-01-23T02:36:24.017Z,0.70
2019-01-23T02:38:51.936Z,0.50
2019-01-23T02:41:19.667Z,0.40
2019-01-23T02:43:47.866Z,0.30
2019-01-23T02:46:15.612Z,0.70
2019-01-23T02:48:43.247Z,0.50
2019-01-23T02:51:11.135Z,0.60
2019-01-23T02:53:39.379Z,0.80
2019-01-23T02:56:07.086Z,0.60
2019-01-23T02:58:34.733Z,0.60
2019-01-23T03:01:02.722Z,0.50
2019-01-23T03:03:30.984Z,0.60
2019-01-23T03:05:58.715Z,0.50
2019-01-23T03:08:26.607Z,0.60
2019-01-23T03:10:54.567Z,0.60
2019-01-23T03:13:22.586Z,0.70
2019-01-23T03:15:50.516Z,0.40
2019-01-23T03:18:18.174Z,0.60
2019-01-23T03:20:46.219Z,0.40
2019-01-23T03:23:14.134Z,0.60
2019-01-23T03:25:42.180Z,0.30
2019-01-23T03:28:10.155Z,0.70
2019-01-23T03:30:37.817Z,0.70
2019-01-23T03:33:05.396Z,0.30
2019-01-23T03:35:33.037Z,0.30
2019-01-23T03:38:01.410Z,0.70
2019-01-23T03:40:29.056Z,0.50
2019-01-23T03:42:56.712Z,0.50
2019-01-23T03:45:24.393Z,0.40
2019-01-23T03:47:52.278Z,0.40
2019-01-23T03:50:20.355Z,0.40
2019-01-23T03:52:47.948Z,0.40
2019-01-23T03:55:16.260Z,0.50
2019-01-23T03:57:43.943Z,0.30
2019-01-23T04:00:16.646Z,0.30
2019-01-23T04:02:44.211Z,0.30
2019-01-23T04:05:12.548Z,0.30
2019-01-23T04:07:40.369Z,0.30
2019-01-23T04:10:10.544Z,0.50
2019-01-23T04:12:38.810Z,0.20
2019-01-23T04:15:07.354Z,0.50
2019-01-23T04:17:35.583Z,0.10
2019-01-23T04:20:05.622Z,0.20
2019-01-23T04:22:33.280Z,0.30
2019-01-23T04:25:00.883Z,0.00
2019-01-23T04:27:28.591Z,0.20
2019-01-23T04:29:56.837Z,-0.10
2019-01-23T04:32:25.205Z,0.10
2019-01-23T04:34:53.179Z,-0.10
2019-01-23T04:37:20.776Z,-0.30
2019-01-23T04:39:48.412Z,-0.30
2019-01-23T04:42:16.306Z,-0.30
2019-01-23T04:44:44.193Z,-0.30
2019-01-23T04:47:12.452Z,-0.20
2019-01-23T04:49:40.376Z,-0.50
2019-01-23T04:52:13.151Z,-0.30
2019-01-23T04:54:40.899Z,-0.30
2019-01-23T04:57:08.590Z,-0.20
2019-01-23T04:59:36.254Z,-0.30
2019-01-23T05:02:03.854Z,-0.20
2019-01-23T05:04:31.845Z,-0.30
2019-01-23T05:06:59.845Z,-0.30
2019-01-23T05:09:27.535Z,-0.60
2019-01-23T05:11:56.813Z,-0.40
2019-01-23T05:14:24.875Z,-0.40
2019-01-23T05:16:52.539Z,-0.60
2019-01-23T05:19:20.450Z,-0.70
2019-01-23T05:21:48.436Z,-0.40
2019-01-23T05:24:16.438Z,-0.50
2019-01-23T05:26:45.038Z,-0.70
2019-01-23T05:29:12.667Z,-0.50
2019-01-23T05:31:40.433Z,-0.40
2019-01-23T05:34:08.048Z,-0.70
2019-01-23T05:36:35.646Z,-0.50
2019-01-23T05:39:06.585Z,-0.30
2019-01-23T05:41:34.793Z,-0.40
2019-01-23T05:44:02.671Z,-0.60
2019-01-23T05:46:30.629Z,-0.50
2019-01-23T05:48:58.279Z,-0.80
2019-01-23T05:51:25.787Z,-0.60
2019-01-23T05:53:53.726Z,-0.80
2019-01-23T05:56:21.302Z,-0.40
2019-01-23T05:58:49.159Z,-0.70
2019-01-23T06:01:17.235Z,-0.50
2019-01-23T06:03:45.251Z,-0.50
2019-01-23T06:06:13.134Z,-0.40
2019-01-23T06:08:41.127Z,-0.30
2019-01-23T06:11:09.086Z,-0.50
2019-01-23T06:13:36.746Z,-0.40
2019-01-23T06:16:04.429Z,-0.50
2019-01-23T06:18:32.167Z,-0.40
2019-01-23T06:21:00.139Z,-0.60
2019-01-23T06:23:28.386Z,-0.50
2019-01-23T06:25:56.291Z,-0.80
2019-01-23T06:28:24.074Z,-0.40
2019-01-23T06:30:52.728Z,-0.40
2019-01-23T06:33:20.874Z,-0.70
2019-01-23T06:35:48.514Z,-0.50
2019-01-23T06:38:16.030Z,-0.50
2019-01-23T06:40:43.941Z,-0.50
2019-01-23T06:43:11.979Z,-0.80
2019-01-23T06:45:39.622Z,-0.60
2019-01-23T06:48:07.244Z,-0.40
2019-01-23T06:50:35.150Z,-0.20
2019-01-23T06:53:02.708Z,-0.70
2019-01-23T06:55:31.186Z,-0.40
2019-01-23T06:57:59.042Z,-0.40
2019-01-23T07:00:26.964Z,-0.40
2019-01-23T07:02:54.647Z,-0.60
2019-01-23T07:05:22.942Z,-0.30
2019-01-23T07:07:51.439Z,-0.20
2019-01-23T07:10:21.176Z,-0.50
2019-01-23T07:12:48.750Z,-0.40
2019-01-23T07:15:16.328Z,-0.30
2019-01-23T07:17:44.242Z,-0.30
2019-01-23T07:20:15.113Z,-0.40
2019-01-23T07:22:43.362Z,-0.30
2019-01-23T07:25:11.002Z,-0.40
2019-01-23T07:27:38.530Z,-0.20
2019-01-23T07:30:10.839Z,-0.40
2019-01-23T07:32:38.571Z,-0.30
2019-01-23T07:35:06.280Z,-0.40
2019-01-23T07:37:34.258Z,-0.50
2019-01-23T07:40:01.992Z,-0.40
2019-01-23T07:42:29.610Z,-0.20
2019-01-23T07:44:57.800Z,-0.30
2019-01-23T07:47:26.183Z,-0.50
2019-01-23T07:49:53.840Z,-0.40
2019-01-23T07:52:21.958Z,-0.50
2019-01-23T07:54:50.214Z,-0.20
2019-01-23T07:57:18.225Z,-0.10
2019-01-23T07:59:46.564Z,-0.10
2019-01-23T08:02:14.225Z,0.00
2019-01-23T08:04:42.054Z,0.00
2019-01-23T08:07:09.854Z,-0.10
2019-01-23T08:09:38.408Z,0.20
2019-01-23T08:12:10.653Z,0.20
2019-01-23T08:14:35.826Z,0.20
2019-01-23T08:17:04.115Z,0.90
2019-01-23T08:19:32.863Z,1.60
2019-01-23T08:22:01.448Z,2.20
2019-01-23T08:24:29.126Z,2.60
2019-01-23T08:26:56.720Z,2.60
2019-01-23T08:29:25.029Z,2.90
2019-01-23T08:31:53.086Z,3.10
2019-01-23T08:34:20.786Z,4.00
2019-01-23T08:36:48.791Z,4.30
2019-01-23T08:39:16.528Z,4.50
2019-01-23T08:41:44.127Z,4.40
2019-01-23T08:44:11.780Z,3.90
2019-01-23T08:46:39.727Z,3.60
2019-01-23T08:49:08.292Z,3.80
2019-01-23T08:51:36.168Z,4.10
2019-01-23T08:54:04.307Z,4.10
2019-01-23T08:56:32.218Z,4.60
2019-01-23T08:58:59.866Z,4.70
2019-01-23T09:01:28.252Z,4.50
2019-01-23T09:03:56.134Z,4.80
2019-01-23T09:06:23.986Z,4.60
2019-01-23T09:08:51.999Z,4.00
2019-01-23T09:11:19.836Z,3.50
2019-01-23T09:13:47.572Z,3.20
2019-01-23T09:16:15.462Z,2.80
2019-01-23T09:18:43.494Z,2.80
2019-01-23T09:21:11.194Z,2.50
2019-01-23T09:23:38.713Z,2.30
2019-01-23T09:26:06.697Z,2.50
2019-01-23T09:28:34.327Z,2.30
2019-01-23T09:31:24.348Z,2.40
2019-01-23T09:34:01.839Z,2.70
2019-01-23T09:37:01.966Z,2.60
2019-01-23T09:40:08.322Z,2.50
2019-01-23T09:43:19.709Z,2.70
2019-01-23T09:46:19.423Z,2.80
2019-01-23T09:49:09.990Z,2.30
2019-01-23T09:52:25.475Z,2.30
2019-01-23T09:54:53.454Z,2.20
2019-01-23T09:57:21.356Z,2.20
2019-01-23T09:59:49.019Z,2.30
2019-01-23T10:02:16.595Z,2.00
2019-01-23T10:04:45.142Z,2.50
2019-01-23T10:07:13.039Z,2.20
2019-01-23T10:09:41.337Z,1.80
2019-01-23T10:12:09.029Z,2.00
2019-01-23T10:14:37.020Z,2.20
2019-01-23T10:17:05.121Z,2.20
2019-01-23T10:19:32.779Z,1.80
2019-01-23T10:22:00.758Z,1.80
2019-01-23T10:24:28.371Z,1.60
2019-01-23T10:26:56.344Z,1.60
2019-01-23T10:29:24.306Z,1.90
2019-01-23T10:31:52.065Z,1.80
2019-01-23T10:34:20.054Z,1.70
2019-01-23T10:36:48.383Z,1.90
2019-01-23T10:39:17.530Z,1.70
2019-01-23T10:41:45.713Z,2.00
2019-01-23T10:44:13.879Z,1.90
2019-01-23T10:46:42.186Z,2.40
2019-01-23T10:49:10.979Z,2.40
2019-01-23T10:51:39.046Z,2.40
2019-01-23T10:54:09.966Z,2.50
2019-01-23T10:56:38.743Z,2.90
2019-01-23T10:59:06.778Z,2.70
2019-01-23T11:01:34.766Z,2.70
2019-01-23T11:04:02.322Z,2.60
2019-01-23T11:06:30.401Z,2.80
2019-01-23T11:08:58.852Z,2.70
2019-01-23T11:11:27.935Z,2.70
2019-01-23T11:13:55.534Z,2.80
2019-01-23T11:16:23.516Z,2.70
2019-01-23T11:18:51.283Z,2.80
2019-01-23T11:21:19.258Z,3.10
2019-01-23T11:23:47.507Z,3.10
2019-01-23T11:26:15.712Z,2.80
2019-01-23T11:28:47.314Z,2.70
2019-01-23T11:31:20.353Z,2.80
2019-01-23T11:33:44.637Z,2.80
2019-01-23T11:36:12.330Z,2.80
2019-01-23T11:38:40.418Z,2.80
2019-01-23T11:41:08.113Z,2.70
2019-01-23T11:43:35.766Z,2.80
2019-01-23T11:46:03.609Z,2.90
2019-01-23T11:48:31.632Z,2.90
2019-01-23T11:50:59.366Z,2.80
2019-01-23T11:53:26.938Z,2.90
2019-01-23T11:55:54.999Z,3.20
2019-01-23T11:58:22.584Z,3.30
2019-01-23T12:00:53.412Z,3.30
2019-01-23T12:03:21.587Z,3.40
2019-01-23T12:05:49.219Z,3.40
2019-01-23T12:08:19.086Z,3.50
2019-01-23T12:10:47.722Z,3.50
2019-01-23T12:13:15.506Z,3.30
2019-01-23T12:15:43.973Z,3.50
2019-01-23T12:18:11.944Z,3.40
2019-01-23T12:20:42.026Z,3.10
2019-01-23T12:23:10.031Z,3.00
2019-01-23T12:25:37.907Z,3.30
2019-01-23T12:28:06.453Z,3.10
2019-01-23T12:30:35.579Z,3.10
2019-01-23T12:33:03.924Z,3.30
2019-01-23T12:35:32.027Z,3.70
2019-01-23T12:38:00.439Z,3.40
2019-01-23T12:40:28.545Z,3.40
2019-01-23T12:42:56.359Z,3.10
2019-01-23T12:45:26.258Z,3.20
2019-01-23T12:47:54.107Z,3.00
2019-01-23T12:50:24.195Z,3.20
2019-01-23T12:52:52.286Z,2.90
2019-01-23T12:55:19.960Z,2.90
2019-01-23T12:57:47.612Z,3.00
2019-01-23T13:00:19.905Z,3.10
2019-01-23T13:02:48.182Z,3.10
2019-01-23T13:05:17.735Z,3.10
2019-01-23T13:07:45.957Z,3.20
2019-01-23T13:10:15.783Z,3.10
2019-01-23T13:12:44.036Z,3.40
2019-01-23T13:15:13.746Z,3.20
2019-01-23T13:17:41.452Z,3.60
2019-01-23T13:20:11.826Z,3.10
2019-01-23T13:22:39.570Z,3.30
2019-01-23T13:25:10.537Z,3.10
2019-01-23T13:27:38.183Z,3.10
2019-01-23T13:30:09.002Z,3.10
2019-01-23T13:32:36.719Z,3.60
2019-01-23T13:35:05.819Z,3.40
2019-01-23T13:37:33.891Z,3.50
2019-01-23T13:40:01.626Z,3.10
2019-01-23T13:42:29.517Z,3.10
2019-01-23T13:44:57.560Z,3.00
2019-01-23T13:47:25.416Z,3.00
2019-01-23T13:49:53.311Z,2.80
2019-01-23T13:52:21.750Z,3.10
2019-01-23T13:54:49.453Z,3.00
2019-01-23T13:57:17.675Z,3.10
2019-01-23T13:59:45.623Z,2.70
2019-01-23T14:02:13.733Z,2.70
2019-01-23T14:04:41.415Z,2.70
2019-01-23T14:07:09.488Z,2.70
2019-01-23T14:09:37.568Z,2.60
2019-01-23T14:12:05.742Z,2.80
2019-01-23T14:14:33.301Z,2.80
2019-01-23T14:17:01.298Z,2.80
2019-01-23T14:19:29.354Z,2.80
2019-01-23T14:21:57.866Z,2.70
2019-01-23T14:24:25.846Z,2.90
2019-01-23T14:26:53.719Z,2.80
2019-01-23T14:29:21.332Z,2.90
2019-01-23T14:31:49.302Z,2.70
2019-01-23T14:34:17.007Z,2.70
2019-01-23T14:36:44.716Z,2.70
2019-01-23T14:39:13.054Z,2.80
2019-01-23T14:41:41.018Z,2.80
2019-01-23T14:44:09.163Z,2.70
2019-01-23T14:46:37.701Z,2.70
2019-01-23T14:49:05.350Z,2.70
2019-01-23T14:51:33.342Z,2.60
2019-01-23T14:54:01.231Z,2.70
2019-01-23T14:56:29.003Z,2.70
2019-01-23T14:58:56.726Z,2.60
2019-01-23T15:01:24.387Z,2.30
2019-01-23T15:03:52.252Z,2.50
2019-01-23T15:06:20.230Z,2.40
2019-01-23T15:08:48.386Z,2.40
2019-01-23T15:11:16.071Z,2.40
2019-01-23T15:13:44.035Z,2.20
2019-01-23T15:16:12.050Z,2.30
2019-01-23T15:18:40.373Z,2.10
2019-01-23T15:21:08.259Z,2.10
2019-01-23T15:23:38.462Z,1.90
2019-01-23T15:26:06.135Z,2.00
2019-01-23T15:28:34.320Z,2.00
2019-01-23T15:31:02.464Z,1.90
2019-01-23T15:33:30.196Z,2.10
2019-01-23T15:35:58.176Z,2.20
2019-01-23T15:38:26.494Z,2.00
2019-01-23T15:40:56.796Z,1.90
2019-01-23T15:43:28.842Z,1.80
2019-01-23T15:45:59.556Z,1.90
2019-01-23T15:48:27.599Z,2.20
2019-01-23T15:50:56.408Z,1.70
2019-01-23T15:53:24.351Z,1.90
2019-01-23T15:55:52.358Z,1.80
2019-01-23T15:58:20.357Z,2.00
2019-01-23T16:00:48.258Z,1.90
2019-01-23T16:03:16.194Z,1.90
2019-01-23T16:05:43.894Z,1.80
2019-01-23T16:08:11.793Z,1.70
2019-01-23T16:10:39.807Z,1.80
2019-01-23T16:13:07.787Z,1.60
2019-01-23T16:15:35.544Z,1.60
2019-01-23T16:18:03.686Z,1.60
2019-01-23T16:20:31.666Z,1.60
2019-01-23T16:22:59.708Z,1.80
2019-01-23T16:25:27.295Z,1.70
2019-01-23T16:27:55.272Z,1.80
2019-01-23T16:30:28.558Z,1.70
2019-01-23T16:32:56.633Z,1.60
2019-01-23T16:35:24.276Z,1.70
2019-01-23T16:37:52.979Z,1.60
2019-01-23T16:40:20.987Z,1.70
2019-01-23T16:42:49.178Z,1.50
2019-01-23T16:45:17.744Z,1.40
2019-01-23T16:47:45.720Z,1.30
2019-01-23T16:50:16.197Z,1.40
2019-01-23T16:52:44.210Z,1.40
2019-01-23T16:55:12.647Z,1.30
2019-01-23T16:57:40.805Z,1.60
2019-01-23T17:00:10.325Z,1.30
2019-01-23T17:02:38.764Z,1.40
2019-01-23T17:05:09.918Z,1.40
2019-01-23T17:07:38.047Z,1.40
2019-01-23T17:10:09.258Z,1.30
2019-01-23T17:12:36.797Z,1.40
2019-01-23T17:15:05.755Z,1.30
2019-01-23T17:17:33.482Z,1.30
2019-01-23T17:20:01.245Z,1.60
2019-01-23T17:22:30.546Z,1.30
2019-01-23T17:24:58.910Z,1.30
2019-01-23T17:27:26.599Z,1.30
2019-01-23T17:29:55.005Z,1.30
2019-01-23T17:32:23.490Z,1.30
2019-01-23T17:34:51.406Z,1.40
2019-01-23T17:37:19.483Z,1.40
2019-01-23T17:39:47.705Z,1.40
2019-01-23T17:42:15.439Z,1.40
2019-01-23T17:44:43.071Z,1.20
2019-01-23T17:47:10.948Z,1.30
2019-01-23T17:49:39.017Z,1.30
2019-01-23T17:52:06.769Z,1.40
2019-01-23T17:54:34.952Z,1.20
2019-01-23T17:57:02.732Z,1.30
2019-01-23T17:59:31.302Z,1.30
2019-01-23T18:01:59.380Z,1.30
2019-01-23T18:04:27.055Z,1.50
2019-01-23T18:06:54.713Z,1.20
2019-01-23T18:09:23.000Z,1.30
2019-01-23T18:11:51.346Z,1.40
2019-01-23T18:14:20.034Z,1.50
2019-01-23T18:16:48.471Z,1.40
2019-01-23T18:19:16.551Z,1.30
2019-01-23T18:21:45.020Z,1.40
2019-01-23T18:24:13.165Z,1.10
2019-01-23T18:26:41.278Z,0.90
2019-01-23T18:29:09.400Z,1.30
2019-01-23T18:31:49.742Z,1.10
2019-01-23T18:35:01.942Z,0.90
2019-01-23T18:37:45.870Z,1.20
2019-01-23T18:40:48.628Z,0.90
2019-01-23T18:43:40.915Z,1.20
2019-01-23T18:46:59.474Z,0.90
2019-01-23T18:50:13.511Z,1.10
2019-01-23T18:52:41.483Z,1.20
2019-01-23T18:55:10.576Z,1.20
2019-01-23T18:57:38.438Z,1.10
2019-01-23T19:00:09.286Z,1.00
2019-01-23T19:02:36.915Z,1.00
2019-01-23T19:05:06.958Z,1.10
2019-01-23T19:07:34.930Z,0.90
2019-01-23T19:10:03.233Z,0.80
2019-01-23T19:12:31.275Z,0.90
2019-01-23T19:14:59.710Z,1.10
2019-01-23T19:17:28.114Z,1.20
2019-01-23T19:19:56.174Z,1.10
2019-01-23T19:22:23.850Z,1.10
2019-01-23T19:24:51.748Z,0.80
2019-01-23T19:27:20.078Z,1.00
2019-01-23T19:29:48.143Z,0.80
2019-01-23T19:32:16.234Z,1.10
2019-01-23T19:34:44.262Z,1.40
2019-01-23T19:37:11.994Z,1.40
2019-01-23T19:39:39.695Z,1.60
2019-01-23T19:42:07.370Z,1.40
2019-01-23T19:44:35.375Z,1.30
2019-01-23T19:47:03.271Z,1.10
2019-01-23T19:49:31.349Z,1.00
2019-01-23T19:51:59.309Z,1.20
2019-01-23T19:54:27.559Z,1.10
2019-01-23T19:56:55.338Z,1.20
2019-01-23T19:59:23.052Z,0.80
2019-01-23T20:01:51.225Z,1.00
2019-01-23T20:04:19.295Z,0.60
2019-01-23T20:06:47.203Z,0.80
2019-01-23T20:09:15.722Z,0.90
2019-01-23T20:11:43.558Z,0.90
2019-01-23T20:14:11.660Z,1.10
2019-01-23T20:16:40.466Z,0.80
2019-01-23T20:19:11.544Z,0.70
2019-01-23T20:21:39.603Z,0.90
2019-01-23T20:24:07.970Z,0.90
2019-01-23T20:26:35.979Z,1.00
2019-01-23T20:29:03.990Z,0.90
2019-01-23T20:31:32.046Z,0.90
2019-01-23T20:34:00.498Z,1.10
2019-01-23T20:36:28.432Z,0.80
2019-01-23T20:38:56.365Z,0.90
2019-01-23T20:41:26.593Z,1.10
2019-01-23T20:43:54.311Z,0.80
2019-01-23T20:46:23.149Z,0.70
2019-01-23T20:48:51.289Z,1.00
2019-01-23T20:51:19.211Z,1.00
2019-01-23T20:53:46.702Z,0.80
2019-01-23T20:56:14.951Z,0.90
2019-01-23T20:58:43.219Z,0.70
2019-01-23T21:01:11.375Z,0.70
2019-01-23T21:03:38.874Z,0.90
2019-01-23T21:06:06.539Z,1.00
2019-01-23T21:08:34.505Z,0.80
2019-01-23T21:11:02.144Z,0.80
2019-01-23T21:13:30.136Z,0.60
2019-01-23T21:15:57.723Z,0.90
2019-01-23T21:18:25.557Z,0.90
2019-01-23T21:20:53.306Z,0.60
2019-01-23T21:23:20.984Z,0.70
2019-01-23T21:25:48.932Z,0.60
2019-01-23T21:28:16.596Z,0.60
2019-01-23T21:30:44.250Z,0.40
2019-01-23T21:33:11.969Z,0.40
2019-01-23T21:35:39.626Z,0.40
2019-01-23T21:38:07.474Z,0.50
2019-01-23T21:40:35.230Z,0.40
2019-01-23T21:43:03.126Z,0.60
2019-01-23T21:45:35.762Z,0.70
2019-01-23T21:48:04.383Z,0.40
2019-01-23T21:50:33.467Z,0.40
2019-01-23T21:53:01.223Z,0.50
2019-01-23T21:55:29.292Z,0.40
2019-01-23T21:57:57.186Z,0.70
2019-01-23T22:00:33.870Z,0.40
2019-01-23T22:03:01.755Z,0.40
2019-01-23T22:05:29.386Z,0.40
2019-01-23T22:07:57.337Z,0.60
2019-01-23T22:10:25.335Z,0.40
2019-01-23T22:12:53.518Z,0.50
2019-01-23T22:15:22.351Z,0.40
2019-01-23T22:17:50.322Z,0.50
2019-01-23T22:20:18.494Z,0.50
2019-01-23T22:22:46.255Z,0.60
2019-01-23T22:25:15.524Z,0.50
2019-01-23T22:27:43.427Z,0.70
2019-01-23T22:30:14.010Z,0.40
2019-01-23T22:32:41.818Z,0.30
2019-01-23T22:35:09.603Z,0.40
2019-01-23T22:37:38.072Z,0.50
2019-01-23T22:40:06.559Z,0.60
2019-01-23T22:42:34.833Z,0.40
2019-01-23T22:45:02.346Z,0.40
2019-01-23T22:47:30.162Z,0.10
2019-01-23T22:49:57.987Z,0.20
2019-01-23T22:52:25.790Z,0.10
2019-01-23T22:54:53.409Z,0.30
2019-01-23T22:57:20.992Z,0.20
2019-01-23T22:59:48.782Z,0.20
2019-01-23T23:02:16.398Z,0.30
2019-01-23T23:04:45.049Z,0.40
2019-01-23T23:07:13.006Z,0.30
2019-01-23T23:09:40.739Z,0.50
2019-01-23T23:12:08.429Z,0.40
2019-01-23T23:14:36.789Z,0.30
2019-01-23T23:17:05.259Z,0.60
2019-01-23T23:19:33.954Z,0.30
2019-01-23T23:22:01.827Z,0.10
2019-01-23T23:24:30.067Z,0.40
2019-01-23T23:26:58.033Z,0.20
2019-01-23T23:29:25.621Z,0.40
2019-01-23T23:31:53.289Z,0.30
2019-01-23T23:34:21.504Z,0.20
2019-01-23T23:36:49.995Z,0.40
2019-01-23T23:39:17.547Z,0.40
2019-01-23T23:41:45.458Z,0.40
2019-01-23T23:44:13.119Z,0.10
2019-01-23T23:46:40.744Z,0.40
2019-01-23T23:49:08.753Z,0.20
2019-01-23T23:51:36.638Z,0.30
2019-01-23T23:54:04.637Z,0.30
2019-01-23T23:56:32.846Z,0.20
2019-01-23T23:59:00.761Z,0.40
